Time;durP1;ratioP1;P1;durP2;ratioP2;P2;SDS_P1;SDS_P2;PMS_P1;PMS_P2;Temp;Humidity;BMP_temperature;BMP_pressure;BME280_temperature;BME280_humidity;BME280_pressure;Samples;Min_cycle;Max_cycle;Signal;HPM_P1;HPM_P2
2023/07/07 00:00:33;;;;;;;9.93;4.95;;;;;;;28.00;54.23;98654.13;6219824;23;20160;-84
2023/07/07 00:02:58;;;;;;;6.88;4.45;;;;;;;27.95;54.23;98655.78;6219796;23;20153;-86
2023/07/07 00:05:24;;;;;;;8.57;4.32;;;;;;;27.93;53.94;98655.16;6246827;23;20145;-86
2023/07/07 00:07:50;;;;;;;11.38;4.38;;;;;;;27.87;54.60;98653.25;6219732;23;20172;-87
2023/07/07 00:10:16;;;;;;;10.20;4.90;;;;;;;27.73;55.15;98651.53;6246015;23;20181;-86
2023/07/07 00:12:41;;;;;;;6.93;3.83;;;;;;;27.59;55.44;98647.16;6246155;23;20148;-87
2023/07/07 00:15:07;;;;;;;8.00;4.15;;;;;;;27.53;55.44;98646.06;6245720;23;20149;-87
2023/07/07 00:17:33;;;;;;;6.63;4.20;;;;;;;27.70;55.18;98646.56;6219625;23;20153;-88
2023/07/07 00:20:03;;;;;;;7.53;4.00;;;;;;;27.68;55.33;98651.31;6246073;23;20592;-86
2023/07/07 00:22:31;;;;;;;7.45;3.88;;;;;;;27.72;55.14;98650.72;6246757;23;20211;-86
2023/07/07 00:24:57;;;;;;;8.32;3.97;;;;;;;27.78;54.63;98641.81;6246042;23;20153;-86
2023/07/07 00:27:22;;;;;;;8.00;3.90;;;;;;;27.78;54.75;98652.59;6246651;23;20612;-85
2023/07/07 00:29:47;;;;;;;8.95;4.60;;;;;;;27.84;54.12;98653.66;6246275;23;20572;-86
2023/07/07 00:32:13;;;;;;;8.32;4.40;;;;;;;27.66;54.45;98646.13;6246295;23;20653;-85
2023/07/07 00:34:38;;;;;;;7.18;4.15;;;;;;;27.59;54.92;98645.28;6219794;23;20157;-86
2023/07/07 00:37:04;;;;;;;6.47;3.75;;;;;;;27.77;54.49;98648.25;6245991;23;20192;-85
2023/07/07 00:39:29;;;;;;;9.88;4.47;;;;;;;27.82;53.71;98650.34;6219403;23;20695;-85
2023/07/07 00:41:55;;;;;;;7.15;3.65;;;;;;;27.86;53.82;98646.19;6245951;23;20483;-87
2023/07/07 00:44:20;;;;;;;8.63;4.57;;;;;;;27.75;54.41;98649.50;6219484;23;20153;-85
2023/07/07 00:46:46;;;;;;;6.72;3.85;;;;;;;27.81;53.87;98648.66;6245909;23;20576;-85
2023/07/07 00:49:17;;;;;;;5.82;3.63;;;;;;;27.75;54.16;98652.19;6245837;23;20172;-86
2023/07/07 00:51:50;;;;;;;7.82;4.55;;;;;;;27.81;53.82;98648.66;6246307;23;20134;-86
2023/07/07 00:54:23;;;;;;;10.02;4.00;;;;;;;27.64;54.95;98650.06;6219560;23;20482;-84
2023/07/07 00:56:52;;;;;;;10.05;4.43;;;;;;;27.80;53.84;98647.03;6245949;23;20144;-84
2023/07/07 00:59:32;;;;;;;8.20;4.00;;;;;;;27.80;53.74;98649.72;6220463;23;20224;-85
2023/07/07 01:02:03;;;;;;;7.20;4.13;;;;;;;27.72;53.50;98644.50;6246598;23;20163;-86
2023/07/07 01:04:30;;;;;;;8.43;3.58;;;;;;;27.74;53.96;98647.81;6246229;23;20141;-85
2023/07/07 01:07:28;;;;;;;8.27;3.88;;;;;;;27.82;53.82;98640.41;6219339;23;20153;-84
2023/07/07 01:09:53;;;;;;;8.40;4.43;;;;;;;27.79;53.37;98650.72;6216564;23;20240;-87
2023/07/07 01:12:19;;;;;;;8.50;4.45;;;;;;;27.74;54.09;98659.44;6219341;23;20157;-87
2023/07/07 01:14:47;;;;;;;7.20;3.97;;;;;;;27.68;54.10;98649.44;6245827;23;20156;-87
2023/07/07 01:17:17;;;;;;;7.53;3.97;;;;;;;27.73;54.25;98646.16;6219378;23;20177;-85
2023/07/07 01:19:46;;;;;;;6.67;3.97;;;;;;;27.56;54.60;98643.00;6219290;23;20149;-85
2023/07/07 01:22:31;;;;;;;8.73;4.25;;;;;;;27.62;54.57;98631.38;6246466;23;20230;-85
2023/07/07 01:25:36;;;;;;;7.17;3.83;;;;;;;27.68;54.16;98637.84;6245889;23;20133;-85
2023/07/07 01:28:14;;;;;;;7.97;4.17;;;;;;;27.82;53.89;98639.56;6248046;23;20220;-85
2023/07/07 01:31:11;;;;;;;9.60;4.20;;;;;;;27.83;53.61;98633.97;6247602;23;20168;-86
2023/07/07 01:33:39;;;;;;;8.25;4.20;;;;;;;27.81;53.62;98629.81;6165095;23;20153;-87
2023/07/07 01:36:04;;;;;;;7.13;3.70;;;;;;;27.80;53.69;98631.69;6247611;23;20149;-85
2023/07/07 01:38:35;;;;;;;6.40;4.10;;;;;;;27.75;54.01;98636.84;6247897;23;20576;-85
2023/07/07 01:41:32;;;;;;;7.03;4.20;;;;;;;27.78;53.71;98632.91;6221163;23;20157;-85
2023/07/07 01:44:17;;;;;;;7.27;4.43;;;;;;;27.68;54.20;98629.75;6244990;23;20153;-85
2023/07/07 01:46:51;;;;;;;7.30;3.65;;;;;;;27.63;54.22;98629.53;6248233;23;20160;-85
2023/07/07 01:49:30;;;;;;;6.27;4.00;;;;;;;27.56;54.39;98637.59;6247417;23;20136;-86
2023/07/07 01:52:11;;;;;;;6.97;4.50;;;;;;;27.48;54.57;98637.78;6247818;23;20564;-85
2023/07/07 01:54:43;;;;;;;9.43;4.70;;;;;;;27.39;54.76;98638.91;6221796;23;20521;-85
2023/07/07 01:57:10;;;;;;;7.87;4.27;;;;;;;27.43;54.77;98641.06;6247807;23;20165;-87
2023/07/07 01:59:36;;;;;;;7.60;4.38;;;;;;;27.38;54.66;98640.78;6247420;23;20175;-86
2023/07/07 02:02:01;;;;;;;7.17;4.17;;;;;;;27.34;54.55;98646.75;6247323;23;20146;-86
2023/07/07 02:04:27;;;;;;;7.43;4.00;;;;;;;27.22;54.89;98637.59;6247391;23;20172;-86
2023/07/07 02:06:52;;;;;;;8.43;4.07;;;;;;;27.10;55.58;98641.84;6220874;23;20595;-85
2023/07/07 02:09:20;;;;;;;10.73;5.05;;;;;;;27.18;55.26;98642.53;6247176;23;20476;-85
2023/07/07 02:11:45;;;;;;;7.50;4.47;;;;;;;27.15;55.23;98640.25;6247231;23;20160;-86
2023/07/07 02:14:11;;;;;;;7.40;4.27;;;;;;;27.17;55.33;98640.06;6247253;23;20231;-85
2023/07/07 02:16:36;;;;;;;8.90;4.80;;;;;;;27.21;54.94;98633.22;6220645;23;20153;-86
2023/07/07 02:19:02;;;;;;;9.73;4.77;;;;;;;27.15;55.19;98645.63;6247184;23;20148;-86
2023/07/07 02:21:28;;;;;;;7.23;4.10;;;;;;;27.10;55.65;98648.06;6247516;23;20721;-86
2023/07/07 02:23:53;;;;;;;9.20;4.33;;;;;;;27.04;55.71;98648.03;6220684;23;20149;-86
2023/07/07 02:26:19;;;;;;;9.18;4.60;;;;;;;27.08;55.81;98652.81;6220686;23;20159;-86
2023/07/07 02:28:46;;;;;;;13.07;5.17;;;;;;;27.08;55.61;98652.00;6247067;23;20156;-86
2023/07/07 02:31:12;;;;;;;10.57;4.30;;;;;;;27.06;55.90;98657.59;6247001;23;20173;-85
2023/07/07 02:33:37;;;;;;;7.63;4.50;;;;;;;27.05;55.72;98655.06;6247689;23;20149;-85
2023/07/07 02:36:05;;;;;;;8.17;4.23;;;;;;;26.98;55.84;98663.09;6246951;23;20481;-85
2023/07/07 02:38:32;;;;;;;9.00;4.50;;;;;;;27.02;56.04;98658.19;6220240;23;20577;-85
2023/07/07 02:40:57;;;;;;;8.73;4.47;;;;;;;26.99;56.04;98661.25;6246851;23;20169;-85
2023/07/07 02:43:23;;;;;;;10.27;4.80;;;;;;;27.01;55.76;98659.19;6220471;23;20153;-85
2023/07/07 02:45:49;;;;;;;6.90;4.20;;;;;;;27.00;56.05;98657.53;6246944;23;20569;-85
2023/07/07 02:48:16;;;;;;;8.10;4.47;;;;;;;26.92;56.06;98663.88;6220502;23;20157;-85
2023/07/07 02:50:41;;;;;;;9.77;4.73;;;;;;;26.93;56.07;98660.19;6220272;23;20590;-85
2023/07/07 02:53:06;;;;;;;13.83;4.57;;;;;;;26.94;56.17;98666.41;6246871;23;20156;-86
2023/07/07 02:55:32;;;;;;;11.50;5.07;;;;;;;26.81;56.32;98672.47;6220407;23;20291;-85
2023/07/07 02:57:57;;;;;;;7.87;4.90;;;;;;;26.74;56.40;98676.94;6247483;23;20235;-86
2023/07/07 03:00:24;;;;;;;10.90;6.40;;;;;;;26.76;56.52;98675.72;6220393;23;20577;-85
2023/07/07 03:02:49;;;;;;;11.30;4.83;;;;;;;26.72;55.96;98679.00;6247421;23;20155;-85
2023/07/07 03:05:15;;;;;;;7.40;4.30;;;;;;;26.66;56.01;98674.41;6247056;23;20224;-86
2023/07/07 03:07:40;;;;;;;10.87;4.73;;;;;;;26.65;56.31;98678.13;6246768;23;20145;-86
2023/07/07 03:10:07;;;;;;;7.87;4.57;;;;;;;26.62;56.65;98678.50;6246951;23;20169;-87
2023/07/07 03:12:32;;;;;;;10.00;5.33;;;;;;;26.65;56.41;98678.13;6246723;23;20149;-87
2023/07/07 03:14:57;;;;;;;10.17;4.80;;;;;;;26.52;57.08;98681.50;6220592;23;20600;-86
2023/07/07 03:17:23;;;;;;;10.43;4.20;;;;;;;26.61;56.53;98682.22;6246643;23;20228;-86
2023/07/07 03:19:48;;;;;;;6.87;4.20;;;;;;;26.63;56.37;98677.47;6246594;23;20146;-86
2023/07/07 03:22:14;;;;;;;8.70;4.87;;;;;;;26.76;56.11;98677.59;6246998;23;20157;-86
2023/07/07 03:24:39;;;;;;;8.13;4.67;;;;;;;26.61;56.49;98676.84;6220132;23;20215;-87
2023/07/07 03:27:05;;;;;;;10.10;4.87;;;;;;;26.50;57.32;98674.66;6220085;23;20168;-86
2023/07/07 03:29:30;;;;;;;7.13;4.30;;;;;;;26.41;57.48;98675.84;6246746;23;20262;-87
2023/07/07 03:31:56;;;;;;;8.23;4.40;;;;;;;26.36;57.91;98683.63;6246813;23;20607;-87
2023/07/07 03:34:21;;;;;;;8.53;5.00;;;;;;;26.40;57.70;98676.84;6219981;23;20167;-87
2023/07/07 03:36:47;;;;;;;8.17;4.57;;;;;;;26.50;57.18;98675.50;6246760;23;20153;-85
2023/07/07 03:39:12;;;;;;;8.10;4.43;;;;;;;26.50;57.14;98680.03;6246270;23;20596;-86
2023/07/07 03:41:37;;;;;;;9.97;4.80;;;;;;;26.47;57.34;98673.19;6246381;23;20196;-87
2023/07/07 03:44:03;;;;;;;9.20;4.60;;;;;;;26.46;57.25;98674.22;6246734;23;20153;-87
2023/07/07 03:46:29;;;;;;;9.60;4.83;;;;;;;26.51;57.66;98684.41;6246379;23;20163;-86
2023/07/07 03:48:56;;;;;;;8.53;4.67;;;;;;;26.47;57.72;98680.41;6246280;23;20145;-86
2023/07/07 03:51:24;;;;;;;8.60;4.80;;;;;;;26.44;57.81;98692.38;6246568;23;20173;-86
2023/07/07 03:53:50;;;;;;;8.63;4.43;;;;;;;26.52;58.16;98688.75;6246989;23;20168;-86
2023/07/07 03:56:17;;;;;;;9.00;4.77;;;;;;;26.50;57.84;98680.03;6246297;23;20172;-85
2023/07/07 03:58:43;;;;;;;7.53;4.63;;;;;;;26.41;58.00;98675.84;6246263;23;20645;-86
2023/07/07 04:01:10;;;;;;;7.97;4.63;;;;;;;26.39;57.86;98677.88;6246206;23;20180;-87
2023/07/07 04:03:36;;;;;;;9.47;4.80;;;;;;;26.46;58.26;98686.84;6246163;23;20180;-86
2023/07/07 04:06:02;;;;;;;11.40;5.53;;;;;;;26.40;58.38;98684.91;6246201;23;20153;-85
2023/07/07 04:08:29;;;;;;;8.67;4.47;;;;;;;26.27;58.66;98684.78;6246171;23;20160;-86
2023/07/07 04:11:02;;;;;;;13.10;5.20;;;;;;;26.33;58.51;98692.91;6246101;23;20565;-86
2023/07/07 04:13:29;;;;;;;7.80;4.43;;;;;;;26.41;58.39;98697.34;6246566;23;20157;-86
2023/07/07 04:16:00;;;;;;;12.43;5.90;;;;;;;26.40;58.44;98688.44;6246111;23;20159;-86
2023/07/07 04:18:26;;;;;;;8.17;4.17;;;;;;;26.40;58.90;98698.34;6246813;23;20557;-86
2023/07/07 04:20:51;;;;;;;10.83;4.90;;;;;;;26.47;58.17;98696.53;6245897;23;20175;-86
2023/07/07 04:23:16;;;;;;;8.87;4.50;;;;;;;26.60;58.03;98696.66;6219542;23;20195;-86
2023/07/07 04:25:45;;;;;;;8.43;4.57;;;;;;;26.73;57.77;98694.94;6246361;23;20220;-85
2023/07/07 04:28:11;;;;;;;8.43;4.57;;;;;;;26.71;58.04;98701.53;6246355;23;20582;-86
2023/07/07 04:30:36;;;;;;;8.90;5.10;;;;;;;26.82;57.67;98699.19;6245932;23;20180;-86
2023/07/07 04:33:02;;;;;;;8.13;4.53;;;;;;;26.79;57.72;98696.88;6246660;23;20148;-87
2023/07/07 04:35:27;;;;;;;11.50;5.17;;;;;;;26.91;57.29;98694.50;6219540;23;20146;-86
2023/07/07 04:37:53;;;;;;;8.33;4.60;;;;;;;27.04;56.73;98705.38;6246308;23;20145;-87
2023/07/07 04:40:18;;;;;;;7.30;4.30;;;;;;;26.86;56.38;98694.25;6245860;23;20184;-87
2023/07/07 04:42:44;;;;;;;10.57;4.83;;;;;;;26.83;57.10;98703.53;6245982;23;20253;-86
2023/07/07 04:45:09;;;;;;;6.83;4.07;;;;;;;26.86;57.31;98702.31;6245923;23;20145;-85
2023/07/07 04:47:35;;;;;;;7.67;4.47;;;;;;;27.06;56.88;98697.94;6219323;23;20569;-86
2023/07/07 04:50:00;;;;;;;10.87;4.80;;;;;;;27.07;56.49;98713.03;6246156;23;20176;-86
2023/07/07 04:52:26;;;;;;;6.63;3.90;;;;;;;27.02;56.70;98712.78;6246302;23;20550;-86
2023/07/07 04:54:51;;;;;;;6.97;4.13;;;;;;;27.13;56.65;98709.56;6219449;23;20573;-86
2023/07/07 04:57:16;;;;;;;8.77;4.70;;;;;;;27.17;56.92;98710.03;6245843;23;20492;-86
2023/07/07 04:59:42;;;;;;;8.20;4.47;;;;;;;27.15;56.64;98710.19;6219438;23;20149;-86
2023/07/07 05:02:07;;;;;;;6.97;3.70;;;;;;;27.20;56.70;98713.13;6248286;23;20144;-86
2023/07/07 05:04:34;;;;;;;9.47;4.60;;;;;;;26.97;56.16;98714.41;6248238;23;20153;-86
2023/07/07 05:07:00;;;;;;;8.87;4.20;;;;;;;27.05;56.09;98711.56;6221360;23;20157;-86
2023/07/07 05:09:25;;;;;;;6.77;4.30;;;;;;;27.07;56.75;98721.09;6248169;23;20287;-87
2023/07/07 05:11:51;;;;;;;10.90;4.47;;;;;;;27.09;57.09;98724.44;6248552;23;20207;-86
2023/07/07 05:14:16;;;;;;;10.60;4.95;;;;;;;27.17;56.39;98710.84;6248567;23;20188;-85
2023/07/07 05:16:42;;;;;;;8.13;4.50;;;;;;;27.23;56.68;98720.81;6247830;23;20149;-86
2023/07/07 05:19:07;;;;;;;11.33;4.60;;;;;;;27.26;55.80;98717.72;6221371;23;20153;-86
2023/07/07 05:21:33;;;;;;;6.90;4.10;;;;;;;27.26;56.17;98715.03;6221345;23;20493;-86
2023/07/07 05:23:59;;;;;;;7.07;3.97;;;;;;;27.44;55.66;98725.31;6247775;23;20160;-86
2023/07/07 05:26:27;;;;;;;10.43;4.40;;;;;;;27.52;55.64;98729.72;6247655;23;20145;-86
2023/07/07 05:28:53;;;;;;;8.43;4.30;;;;;;;27.42;55.35;98736.31;6247721;23;20219;-85
2023/07/07 05:31:19;;;;;;;6.40;4.00;;;;;;;27.56;55.60;98736.38;6247950;23;20210;-86
2023/07/07 05:33:44;;;;;;;8.40;4.23;;;;;;;27.62;54.79;98733.72;6247624;23;20229;-87
2023/07/07 05:36:09;;;;;;;10.03;4.60;;;;;;;27.43;55.06;98735.28;6247972;23;20209;-86
2023/07/07 05:38:41;;;;;;;7.97;4.40;;;;;;;27.39;55.11;98731.31;6247825;23;20156;-86
2023/07/07 05:41:07;;;;;;;8.10;4.53;;;;;;;27.47;54.72;98738.41;6221254;23;20133;-87
2023/07/07 05:43:35;;;;;;;6.72;4.20;;;;;;;27.56;55.14;98744.47;6247600;23;20149;-86
2023/07/07 05:46:03;;;;;;;8.53;4.10;;;;;;;27.64;54.24;98745.16;6247843;23;20187;-86
2023/07/07 05:48:29;;;;;;;6.70;3.92;;;;;;;27.68;55.19;98743.72;6221032;23;20426;-87
2023/07/07 05:50:57;;;;;;;8.37;3.97;;;;;;;27.62;55.47;98744.50;6247440;23;20648;-86
2023/07/07 05:53:23;;;;;;;7.17;4.03;;;;;;;27.67;55.26;98744.75;6247453;23;20145;-86
2023/07/07 05:55:49;;;;;;;9.43;3.80;;;;;;;27.76;54.97;98748.94;6220969;23;20161;-86
2023/07/07 05:58:15;;;;;;;7.00;3.95;;;;;;;27.79;54.65;98751.22;6247652;23;20495;-86
2023/07/07 06:00:41;;;;;;;6.78;4.20;;;;;;;27.94;54.58;98751.94;6247533;23;20199;-87
2023/07/07 06:03:07;;;;;;;8.55;4.65;;;;;;;27.90;54.57;98749.84;6247712;23;20474;-86
2023/07/07 06:05:33;;;;;;;7.05;4.43;;;;;;;27.81;55.30;98746.47;6247284;23;20145;-87
2023/07/07 06:07:59;;;;;;;8.13;4.38;;;;;;;27.89;54.55;98742.78;6247343;23;20149;-86
2023/07/07 06:10:24;;;;;;;15.55;5.07;;;;;;;27.94;55.57;98738.44;6247231;23;20319;-86
2023/07/07 06:12:51;;;;;;;8.05;4.40;;;;;;;28.09;55.04;98742.91;6246939;23;20210;-84
2023/07/07 06:15:16;;;;;;;8.60;4.18;;;;;;;27.99;55.64;98745.94;6220685;23;20246;-86
2023/07/07 06:17:44;;;;;;;7.28;3.70;;;;;;;28.10;54.63;98745.38;6247226;23;20487;-86
2023/07/07 06:20:11;;;;;;;7.20;4.22;;;;;;;28.20;54.99;98748.53;6247200;23;20149;-84
2023/07/07 06:22:36;;;;;;;8.70;4.43;;;;;;;28.25;54.80;98748.75;6247845;23;20153;-85
2023/07/07 06:25:03;;;;;;;8.25;4.38;;;;;;;28.21;54.63;98752.06;6220684;23;20244;-85
2023/07/07 06:27:28;;;;;;;7.15;4.10;;;;;;;28.13;55.34;98749.53;6247466;23;20156;-84
2023/07/07 06:29:53;;;;;;;8.90;3.80;;;;;;;28.26;55.33;98747.72;6247003;23;20173;-84
2023/07/07 06:32:19;;;;;;;7.22;3.92;;;;;;;28.22;55.31;98743.78;6247088;23;20149;-84
2023/07/07 06:34:44;;;;;;;9.25;4.47;;;;;;;28.14;55.70;98743.97;6247049;23;20207;-84
2023/07/07 06:37:10;;;;;;;5.85;3.83;;;;;;;28.25;55.64;98747.94;6247723;23;20181;-85
2023/07/07 06:39:35;;;;;;;11.25;3.78;;;;;;;28.46;56.34;98737.00;6247059;23;20491;-84
2023/07/07 06:42:01;;;;;;;8.38;3.67;;;;;;;28.80;54.38;98742.25;6247710;23;20153;-84
2023/07/07 06:44:26;;;;;;;6.70;4.13;;;;;;;29.05;53.59;98735.25;6247326;23;20149;-86
2023/07/07 06:46:52;;;;;;;7.70;3.83;;;;;;;29.38;54.21;98727.13;6247274;23;20241;-85
2023/07/07 06:49:18;;;;;;;5.90;3.70;;;;;;;29.71;51.23;98736.00;6220359;23;20523;-85
2023/07/07 06:51:44;;;;;;;6.72;3.88;;;;;;;30.05;51.92;98736.75;6247425;23;20455;-85
2023/07/07 06:54:09;;;;;;;5.35;3.60;;;;;;;30.24;48.77;98735.84;6247224;23;20615;-85
2023/07/07 06:56:35;;;;;;;5.78;3.33;;;;;;;30.55;50.69;98732.34;6247548;23;20236;-86
2023/07/07 06:59:00;;;;;;;10.30;4.30;;;;;;;30.72;49.61;98739.72;6247122;23;20176;-85
2023/07/07 07:01:25;;;;;;;5.03;3.25;;;;;;;31.03;48.22;98737.00;6246843;23;20151;-86
2023/07/07 07:03:51;;;;;;;7.22;4.03;;;;;;;31.19;46.49;98740.22;6246778;23;20149;-86
2023/07/07 07:06:16;;;;;;;6.25;3.67;;;;;;;31.51;46.42;98734.53;6246761;23;20489;-85
2023/07/07 07:08:42;;;;;;;6.25;3.47;;;;;;;31.40;45.63;98734.38;6220340;23;20149;-86
2023/07/07 07:11:07;;;;;;;6.13;3.85;;;;;;;31.72;46.48;98721.59;6247002;23;20553;-86
2023/07/07 07:13:33;;;;;;;7.13;3.25;;;;;;;31.86;44.94;98725.81;6220316;23;20163;-86
2023/07/07 07:15:59;;;;;;;5.60;3.58;;;;;;;31.94;44.11;98741.78;6246703;23;20476;-86
2023/07/07 07:18:24;;;;;;;5.70;3.20;;;;;;;32.10;45.06;98733.06;6246700;23;20232;-85
2023/07/07 07:20:51;;;;;;;6.93;4.20;;;;;;;32.52;44.70;98731.22;6246645;23;20145;-86
2023/07/07 07:23:17;;;;;;;8.60;3.92;;;;;;;32.52;43.29;98731.22;6247064;23;20224;-86
2023/07/07 07:25:44;;;;;;;6.05;3.33;;;;;;;32.76;43.55;98732.97;6246617;23;20149;-86
2023/07/07 07:28:11;;;;;;;5.30;3.53;;;;;;;32.93;44.55;98728.53;6220737;23;20164;-86
2023/07/07 07:30:37;;;;;;;4.80;3.65;;;;;;;33.25;42.24;98729.91;6246796;23;20628;-86
2023/07/07 07:33:05;;;;;;;5.97;3.70;;;;;;;33.68;42.40;98726.81;6246840;23;20148;-86
2023/07/07 07:35:30;;;;;;;6.82;4.18;;;;;;;33.92;43.28;98727.59;6246472;23;20484;-86
2023/07/07 07:37:55;;;;;;;5.25;3.05;;;;;;;34.08;41.86;98718.72;6246423;23;20565;-86
2023/07/07 07:40:23;;;;;;;6.45;3.05;;;;;;;34.30;41.43;98719.72;6247016;23;20226;-87
2023/07/07 07:42:50;;;;;;;5.45;3.30;;;;;;;34.46;41.17;98727.09;6220955;23;20161;-86
2023/07/07 07:45:21;;;;;;;5.80;2.83;;;;;;;34.73;40.32;98729.22;6246710;23;20573;-86
2023/07/07 07:47:47;;;;;;;5.60;3.22;;;;;;;34.87;38.81;98731.41;6246754;23;20183;-86
2023/07/07 07:50:14;;;;;;;7.65;2.92;;;;;;;34.92;38.66;98738.84;6246531;23;20601;-86
2023/07/07 07:52:40;;;;;;;6.60;3.40;;;;;;;35.03;39.12;98735.22;6219880;23;20215;-86
2023/07/07 07:55:05;;;;;;;5.38;2.83;;;;;;;35.15;37.89;98733.25;6219841;23;20157;-87
2023/07/07 07:57:31;;;;;;;4.72;2.92;;;;;;;35.41;37.00;98742.63;6219819;23;20227;-86
2023/07/07 07:59:56;;;;;;;5.45;3.00;;;;;;;35.33;36.76;98734.88;6219848;23;20485;-87
2023/07/07 08:02:22;;;;;;;5.07;2.88;;;;;;;35.50;36.75;98730.25;6220860;23;20153;-87
2023/07/07 08:04:47;;;;;;;6.28;3.20;;;;;;;35.57;36.78;98733.66;6219839;23;20223;-86
2023/07/07 08:07:12;;;;;;;5.43;3.33;;;;;;;35.62;36.82;98737.28;6220099;23;20557;-86
2023/07/07 08:09:38;;;;;;;4.07;2.70;;;;;;;35.91;36.24;98726.19;6246071;23;20181;-87
2023/07/07 08:12:03;;;;;;;8.65;3.25;;;;;;;36.10;34.64;98727.56;6220395;23;20149;-87
2023/07/07 08:14:31;;;;;;;7.18;3.00;;;;;;;36.17;34.88;98725.44;6219624;23;20236;-87
2023/07/07 08:16:59;;;;;;;6.25;3.10;;;;;;;36.21;33.87;98732.91;6246489;23;20145;-88
2023/07/07 08:19:25;;;;;;;5.82;3.35;;;;;;;36.10;33.86;98730.28;6246079;23;20641;-87
2023/07/07 08:21:50;;;;;;;4.32;2.78;;;;;;;36.19;34.93;98732.31;6219603;23;20583;-87
2023/07/07 08:24:16;;;;;;;5.45;3.00;;;;;;;36.26;34.21;98723.94;6220057;23;20149;-87
2023/07/07 08:26:42;;;;;;;4.93;3.08;;;;;;;36.37;34.32;98728.44;6219502;23;20159;-87
2023/07/07 08:29:09;;;;;;;5.82;2.97;;;;;;;36.50;37.12;98728.06;6246385;23;20224;-86
2023/07/07 08:31:35;;;;;;;4.75;2.72;;;;;;;36.52;34.56;98725.88;6220838;23;20176;-88
2023/07/07 08:34:00;;;;;;;8.38;3.30;;;;;;;36.27;35.34;98736.47;6246255;23;20569;-87
2023/07/07 08:36:26;;;;;;;4.68;2.75;;;;;;;36.45;35.03;98732.59;6219624;23;20154;-89
2023/07/07 08:38:51;;;;;;;5.15;2.83;;;;;;;36.69;34.13;98734.78;6219717;23;20157;-88
2023/07/07 08:41:17;;;;;;;4.72;2.85;;;;;;;36.67;32.61;98725.19;6246658;23;20137;-87
2023/07/07 08:43:44;;;;;;;6.00;3.15;;;;;;;36.75;34.49;98728.28;6245856;23;20186;-87
2023/07/07 08:46:37;;;;;;;5.85;2.83;;;;;;;36.93;32.93;98727.91;6196092;23;20161;-87
2023/07/07 08:49:18;;;;;;;3.85;2.58;;;;;;;36.98;33.71;98716.22;6219462;23;20145;-87
2023/07/07 08:52:02;;;;;;;6.97;2.83;;;;;;;37.05;33.44;98721.47;6219446;23;20192;-87
2023/07/07 08:54:55;;;;;;;7.32;2.88;;;;;;;36.98;33.73;98720.88;6219872;23;20145;-88
2023/07/07 08:57:25;;;;;;;4.20;2.50;;;;;;;37.19;33.16;98715.28;6198089;23;20525;-88
2023/07/07 09:00:09;;;;;;;4.40;2.65;;;;;;;37.35;33.53;98716.22;6246227;23;20141;-87
2023/07/07 09:03:13;;;;;;;4.28;2.42;;;;;;;37.57;33.56;98708.75;6246298;23;20133;-87
2023/07/07 09:05:54;;;;;;;5.50;3.30;;;;;;;37.63;33.36;98699.50;6213651;23;20196;-88
2023/07/07 09:08:26;;;;;;;5.00;3.05;;;;;;;37.43;32.66;98699.34;6220887;23;20145;-87
2023/07/07 09:11:22;;;;;;;5.60;3.45;;;;;;;37.66;31.70;98695.41;6219669;23;20180;-87
2023/07/07 09:13:49;;;;;;;5.63;3.28;;;;;;;37.29;32.58;98709.91;6219379;23;20153;-87
2023/07/07 09:16:15;;;;;;;6.03;3.10;;;;;;;37.02;32.26;98705.59;6245777;23;20243;-87
2023/07/07 09:19:07;;;;;;;5.88;3.67;;;;;;;36.82;33.70;98712.50;6245760;23;20564;-88
2023/07/07 09:21:44;;;;;;;6.38;3.08;;;;;;;36.71;34.20;98713.53;6246153;23;20147;-86
2023/07/07 09:24:28;;;;;;;4.85;2.90;;;;;;;36.74;34.09;98718.44;6246153;23;20133;-87
2023/07/07 09:27:14;;;;;;;5.38;2.65;;;;;;;36.79;34.14;98712.22;6246451;23;20279;-87
2023/07/07 09:29:41;;;;;;;7.03;2.70;;;;;;;37.03;33.63;98713.53;6219907;23;20545;-87
2023/07/07 09:32:11;;;;;;;4.50;2.78;;;;;;;37.28;32.54;98704.69;6220002;23;20243;-88
2023/07/07 09:34:37;;;;;;;8.48;2.50;;;;;;;37.68;33.91;98695.94;6220015;23;20227;-87
2023/07/07 09:37:30;;;;;;;3.97;2.45;;;;;;;37.72;33.10;98695.16;6219579;23;20181;-88
2023/07/07 09:40:17;;;;;;;4.45;2.78;;;;;;;37.50;32.68;98702.69;6219079;23;20176;-87
2023/07/07 09:43:19;;;;;;;4.38;2.90;;;;;;;37.06;33.17;98702.06;6220634;23;20492;-86
2023/07/07 09:46:01;;;;;;;5.63;2.95;;;;;;;37.19;32.62;98700.78;6220353;23;20155;-87
2023/07/07 09:48:48;;;;;;;4.18;2.67;;;;;;;37.20;33.49;98697.81;6247591;23;20129;-86
2023/07/07 09:51:13;;;;;;;4.55;2.80;;;;;;;37.12;33.85;98698.31;6220951;23;20243;-87
2023/07/07 09:53:40;;;;;;;4.82;3.10;;;;;;;37.10;32.79;98699.66;6221088;23;20184;-87
2023/07/07 09:56:11;;;;;;;6.32;2.83;;;;;;;37.30;34.16;98697.06;6248161;23;20219;-87
2023/07/07 09:58:44;;;;;;;3.75;2.40;;;;;;;37.37;33.20;98686.72;6221340;23;20148;-86
2023/07/07 10:01:10;;;;;;;5.97;3.05;;;;;;;37.62;31.61;98695.09;6220955;23;20138;-87
2023/07/07 10:03:44;;;;;;;5.88;3.00;;;;;;;37.82;31.17;98684.25;6247738;23;20595;-87
2023/07/07 10:06:18;;;;;;;5.20;2.70;;;;;;;37.95;31.01;98682.94;6247736;23;20134;-86
2023/07/07 10:08:43;;;;;;;4.47;2.72;;;;;;;37.95;31.29;98667.34;6247765;23;20152;-86
2023/07/07 10:11:20;;;;;;;4.00;2.35;;;;;;;38.13;31.17;98669.59;6217675;23;20605;-87
2023/07/07 10:13:47;;;;;;;4.40;2.58;;;;;;;38.38;29.65;98666.13;6246191;23;20164;-86
2023/07/07 10:16:33;;;;;;;4.22;2.60;;;;;;;38.37;29.78;98663.66;6247099;23;20222;-86
2023/07/07 10:19:06;;;;;;;5.72;3.30;;;;;;;38.42;29.56;98652.72;6220879;23;20157;-86
2023/07/07 10:21:32;;;;;;;4.80;2.70;;;;;;;38.45;30.76;98638.47;6247132;23;20145;-85
2023/07/07 10:23:58;;;;;;;5.63;2.78;;;;;;;38.53;29.86;98635.19;6247561;23;20171;-88
2023/07/07 10:26:24;;;;;;;4.93;2.80;;;;;;;38.44;30.82;98637.66;6220665;23;20449;-86
2023/07/07 10:28:52;;;;;;;4.63;3.42;;;;;;;38.46;30.31;98626.44;6246987;23;20561;-87
2023/07/07 10:31:17;;;;;;;6.38;3.17;;;;;;;38.40;30.35;98630.25;6220599;23;20177;-87
2023/07/07 10:33:43;;;;;;;3.70;2.60;;;;;;;38.36;29.81;98642.84;6247075;23;20298;-86
2023/07/07 10:36:23;;;;;;;5.28;3.40;;;;;;;38.64;28.48;98645.91;6247072;23;20577;-87
2023/07/07 10:38:49;;;;;;;4.55;2.83;;;;;;;38.59;29.49;98650.53;6247209;23;20172;-86
2023/07/07 10:41:14;;;;;;;4.95;3.08;;;;;;;38.50;31.15;98636.56;6220655;23;20463;-86
2023/07/07 10:43:40;;;;;;;6.28;2.65;;;;;;;38.63;30.99;98646.97;6220564;23;20177;-87
2023/07/07 10:46:11;;;;;;;3.78;2.30;;;;;;;38.05;29.89;98650.16;6220587;23;20157;-86
2023/07/07 10:48:39;;;;;;;5.22;3.03;;;;;;;38.21;29.72;98640.06;6247374;23;20177;-86
2023/07/07 10:51:37;;;;;;;5.40;3.20;;;;;;;38.04;31.36;98637.56;6246863;23;20200;-87
2023/07/07 10:54:21;;;;;;;4.75;2.97;;;;;;;38.12;30.61;98637.88;6247313;23;20557;-87
2023/07/07 10:56:52;;;;;;;5.75;3.25;;;;;;;38.22;29.45;98648.00;6246795;23;20224;-87
2023/07/07 11:00:06;;;;;;;9.88;4.43;;;;;;;38.18;30.52;98651.56;6246889;23;20130;-87
2023/07/07 11:02:50;;;;;;;7.07;3.05;;;;;;;38.14;31.82;98651.25;6096183;23;20255;-85
2023/07/07 11:05:33;;;;;;;6.07;2.70;;;;;;;36.23;33.44;98650.75;6096046;23;20569;-85
2023/07/07 11:08:10;;;;;;;8.88;2.50;;;;;;;35.39;35.32;98663.84;6213524;23;20164;-84
2023/07/07 11:11:09;;;;;;;6.80;2.95;;;;;;;34.51;36.66;98678.16;6220076;23;20177;-85
2023/07/07 11:14:15;;;;;;;9.50;2.10;;;;;;;34.35;37.74;98694.50;6247139;23;20172;-84
2023/07/07 11:16:55;;;;;;;5.90;2.33;;;;;;;33.79;38.37;98700.69;6096158;23;20220;-85
2023/07/07 11:19:32;;;;;;;6.38;2.60;;;;;;;33.45;38.79;98706.97;6071688;23;20176;-85
2023/07/07 11:22:41;;;;;;;7.47;2.45;;;;;;;33.02;39.80;98699.16;6166145;23;20164;-84
2023/07/07 11:25:46;;;;;;;7.60;2.13;;;;;;;32.37;45.06;98707.22;6207255;23;20169;-84
2023/07/07 11:28:17;;;;;;;6.35;2.58;;;;;;;31.54;46.06;98701.56;6171373;23;20179;-82
2023/07/07 11:31:30;;;;;;;5.63;2.42;;;;;;;31.21;47.62;98716.47;6246479;23;20176;-84
2023/07/07 11:34:17;;;;;;;9.02;2.35;;;;;;;31.50;47.69;98748.28;6188465;23;20184;-84
2023/07/07 11:36:57;;;;;;;6.47;2.47;;;;;;;31.37;49.77;98732.13;6246864;23;20160;-83
2023/07/07 11:39:40;;;;;;;9.82;3.03;;;;;;;31.02;50.01;98734.53;6246359;23;20596;-84
2023/07/07 11:42:38;;;;;;;5.70;2.72;;;;;;;31.30;48.50;98747.63;6246397;23;20137;-83
2023/07/07 11:45:10;;;;;;;9.15;2.85;;;;;;;31.45;49.13;98739.97;6219866;23;20149;-84